createdAt,value
2023-03-04T00:01:51.827Z,33.25
2023-03-04T00:04:18.520Z,34.88
2023-03-04T00:06:45.136Z,36.67
2023-03-04T00:09:11.775Z,33.38
2023-03-04T00:11:38.413Z,31.23
2023-03-04T00:14:05.104Z,33.50
2023-03-04T00:16:31.909Z,33.15
2023-03-04T00:18:58.630Z,35.20
2023-03-04T00:21:25.401Z,35.88
2023-03-04T00:23:52.103Z,35.38
2023-03-04T00:26:18.892Z,35.30
2023-03-04T00:28:45.552Z,34.72
2023-03-04T00:31:12.425Z,35.78
2023-03-04T00:33:40.360Z,33.75
2023-03-04T00:36:07.391Z,34.30
2023-03-04T00:38:34.011Z,33.75
2023-03-04T00:41:00.688Z,31.27
2023-03-04T00:43:27.306Z,31.75
2023-03-04T00:45:54.104Z,31.33
2023-03-04T00:48:20.733Z,33.33
2023-03-04T00:50:47.370Z,31.73
2023-03-04T00:53:14.002Z,33.33
2023-03-04T00:55:40.742Z,32.70
2023-03-04T00:58:07.355Z,32.78
2023-03-04T01:00:34.012Z,34.30
2023-03-04T01:03:00.623Z,32.85
2023-03-04T01:05:27.287Z,33.72
2023-03-04T01:07:53.906Z,32.33
2023-03-04T01:10:20.792Z,34.22
2023-03-04T01:12:47.533Z,34.30
2023-03-04T01:15:14.852Z,36.45
2023-03-04T01:17:41.691Z,33.78
2023-03-04T01:20:09.617Z,34.63
2023-03-04T01:22:36.358Z,31.98
2023-03-04T01:25:03.401Z,32.80
2023-03-04T01:27:30.042Z,32.80
2023-03-04T01:29:56.686Z,33.60
2023-03-04T01:32:23.340Z,32.40
2023-03-04T01:34:49.989Z,33.10
2023-03-04T01:37:16.613Z,32.17
2023-03-04T01:39:43.229Z,32.85
2023-03-04T01:42:21.913Z,33.15
2023-03-04T01:44:49.819Z,32.20
2023-03-04T01:47:17.181Z,33.45
2023-03-04T01:49:43.973Z,34.13
2023-03-04T01:52:14.260Z,32.97
2023-03-04T01:54:41.692Z,31.88
2023-03-04T01:57:20.525Z,31.88
2023-03-04T01:59:48.197Z,31.73
2023-03-04T02:02:15.090Z,32.25
2023-03-04T02:04:42.554Z,32.58
2023-03-04T02:07:09.485Z,34.47
2023-03-04T02:09:36.820Z,34.85
2023-03-04T02:12:03.576Z,32.80
2023-03-04T02:14:31.379Z,34.38
2023-03-04T02:16:58.075Z,33.75
2023-03-04T02:19:42.184Z,33.35
2023-03-04T02:22:09.155Z,34.10
2023-03-04T02:24:43.397Z,33.50
2023-03-04T02:27:10.214Z,32.42
2023-03-04T02:29:37.083Z,34.15
2023-03-04T02:32:04.115Z,32.25
2023-03-04T02:34:34.026Z,33.70
2023-03-04T02:37:02.449Z,32.58
2023-03-04T02:39:36.578Z,29.92
2023-03-04T02:42:04.090Z,32.85
2023-03-04T02:44:32.930Z,30.45
2023-03-04T02:46:59.587Z,32.35
2023-03-04T02:49:28.426Z,33.13
2023-03-04T02:52:20.425Z,33.45
2023-03-04T02:54:47.236Z,32.97
2023-03-04T02:57:14.997Z,31.65
2023-03-04T02:59:42.378Z,31.10
2023-03-04T03:02:10.329Z,30.17
2023-03-04T03:04:39.120Z,31.35
2023-03-04T03:07:06.160Z,32.28
2023-03-04T03:09:32.817Z,31.20
2023-03-04T03:11:59.444Z,31.40
2023-03-04T03:14:26.087Z,32.00
2023-03-04T03:16:52.747Z,29.92
2023-03-04T03:19:19.340Z,30.85
2023-03-04T03:21:46.042Z,31.25
2023-03-04T03:24:12.690Z,31.13
2023-03-04T03:26:40.028Z,30.85
2023-03-04T03:29:06.654Z,32.92
2023-03-04T03:31:33.340Z,32.78
2023-03-04T03:33:59.957Z,33.42
2023-03-04T03:36:26.646Z,32.60
2023-03-04T03:38:53.357Z,33.08
2023-03-04T03:41:20.021Z,31.70
2023-03-04T03:43:46.635Z,31.30
2023-03-04T03:46:13.338Z,32.53
2023-03-04T03:48:39.949Z,31.95
2023-03-04T03:51:06.612Z,32.72
2023-03-04T03:53:33.229Z,30.80
2023-03-04T03:55:59.858Z,31.98
2023-03-04T03:58:26.959Z,32.45
2023-03-04T04:00:54.025Z,31.98
2023-03-04T04:03:21.917Z,32.35
2023-03-04T04:05:48.562Z,31.13
2023-03-04T04:08:17.350Z,30.77
2023-03-04T04:10:44.240Z,28.90
2023-03-04T04:13:11.418Z,30.40
2023-03-04T04:15:38.925Z,29.98
2023-03-04T04:18:07.082Z,30.23
2023-03-04T04:20:34.149Z,31.55
2023-03-04T04:23:01.265Z,30.77
2023-03-04T04:25:29.175Z,31.40
2023-03-04T04:27:55.791Z,31.75
2023-03-04T04:30:22.434Z,31.13
2023-03-04T04:32:49.065Z,32.10
2023-03-04T04:35:15.728Z,31.52
2023-03-04T04:37:42.328Z,32.60
2023-03-04T04:40:09.624Z,30.30
2023-03-04T04:42:36.256Z,30.92
2023-03-04T04:45:03.644Z,31.50
2023-03-04T04:47:30.458Z,30.40
2023-03-04T04:49:59.284Z,30.98
2023-03-04T04:52:25.967Z,29.25
2023-03-04T04:54:52.619Z,30.65
2023-03-04T04:57:19.301Z,29.35
2023-03-04T04:59:45.887Z,30.83
2023-03-04T05:02:12.563Z,30.15
2023-03-04T05:04:39.147Z,30.98
2023-03-04T05:07:05.798Z,30.30
2023-03-04T05:09:32.447Z,29.52
2023-03-04T05:11:59.120Z,29.33
2023-03-04T05:14:25.765Z,29.73
2023-03-04T05:16:53.028Z,31.67
2023-03-04T05:19:21.163Z,30.20
2023-03-04T05:21:47.815Z,31.50
2023-03-04T05:24:14.479Z,32.28
2023-03-04T05:26:41.332Z,29.75
2023-03-04T05:29:08.054Z,29.17
2023-03-04T05:31:34.807Z,28.58
2023-03-04T05:34:01.445Z,30.27
2023-03-04T05:36:28.157Z,30.75
2023-03-04T05:38:54.775Z,29.65
2023-03-04T05:41:22.729Z,31.33
2023-03-04T05:43:50.217Z,31.35
2023-03-04T05:46:19.154Z,31.90
2023-03-04T05:48:46.060Z,32.20
2023-03-04T05:51:12.661Z,30.70
2023-03-04T05:53:40.098Z,30.80
2023-03-04T05:56:11.631Z,31.45
2023-03-04T05:58:38.289Z,30.67
2023-03-04T06:01:05.603Z,31.75
2023-03-04T06:03:32.329Z,30.35
2023-03-04T06:05:59.447Z,30.13
2023-03-04T06:08:27.775Z,30.15
2023-03-04T06:10:56.177Z,32.40
2023-03-04T06:13:23.715Z,31.17
2023-03-04T06:15:56.497Z,32.88
2023-03-04T06:18:24.432Z,33.45
2023-03-04T06:20:51.449Z,32.95
2023-03-04T06:23:18.068Z,30.30
2023-03-04T06:25:44.797Z,29.65
2023-03-04T06:28:11.435Z,29.90
2023-03-04T06:30:38.149Z,30.67
2023-03-04T06:33:04.763Z,31.60
2023-03-04T06:35:31.435Z,29.42
2023-03-04T06:37:58.065Z,29.35
2023-03-04T06:40:24.716Z,32.38
2023-03-04T06:42:51.373Z,32.10
2023-03-04T06:45:18.092Z,33.10
2023-03-04T06:47:45.052Z,32.30
2023-03-04T06:50:13.026Z,34.15
2023-03-04T06:52:40.640Z,32.92
2023-03-04T06:55:08.567Z,32.40
2023-03-04T06:57:35.562Z,32.63
2023-03-04T07:00:03.384Z,32.15
2023-03-04T07:02:30.156Z,31.73
2023-03-04T07:04:56.856Z,31.38
2023-03-04T07:07:23.688Z,33.08
2023-03-04T07:09:50.317Z,33.08
2023-03-04T07:12:16.949Z,32.88
2023-03-04T07:14:43.572Z,32.15
2023-03-04T07:17:10.187Z,33.78
2023-03-04T07:19:36.971Z,32.15
2023-03-04T07:22:03.675Z,33.55
2023-03-04T07:24:30.318Z,33.72
2023-03-04T07:26:56.940Z,32.45
2023-03-04T07:29:23.608Z,33.20
2023-03-04T07:31:53.111Z,34.72
2023-03-04T07:36:46.949Z,36.13
2023-03-04T07:39:13.880Z,36.20
2023-03-04T07:41:40.905Z,36.97
2023-03-04T07:44:09.002Z,36.78
2023-03-04T07:46:35.882Z,37.33
2023-03-04T07:49:02.564Z,35.72
2023-03-04T07:51:29.349Z,36.92
2023-03-04T07:53:59.650Z,34.92
2023-03-04T07:56:29.799Z,35.03
2023-03-04T08:01:37.446Z,37.42
2023-03-04T08:04:06.512Z,38.65
2023-03-04T08:06:33.932Z,32.35
2023-03-04T08:09:06.479Z,26.70
2023-03-04T08:11:34.516Z,28.05
2023-03-04T08:14:01.197Z,28.75
2023-03-04T08:16:28.681Z,29.95
2023-03-04T08:18:57.846Z,28.55
2023-03-04T08:21:25.994Z,30.70
2023-03-04T08:23:52.786Z,28.27
2023-03-04T08:26:33.968Z,28.98
2023-03-04T08:29:03.633Z,29.50
2023-03-04T08:31:30.363Z,28.40
2023-03-04T08:33:57.498Z,29.98
2023-03-04T08:36:24.280Z,30.58
2023-03-04T08:38:50.986Z,30.55
2023-03-04T08:41:17.657Z,29.13
2023-03-04T08:43:44.359Z,30.25
2023-03-04T08:46:11.244Z,29.65
2023-03-04T08:48:38.779Z,32.53
2023-03-04T08:51:10.312Z,33.50
2023-03-04T08:53:37.902Z,33.60
2023-03-04T08:56:05.353Z,32.17
2023-03-04T08:58:32.330Z,32.58
2023-03-04T09:01:00.985Z,34.28
2023-03-04T09:03:28.798Z,33.45
2023-03-04T09:05:55.919Z,31.23
2023-03-04T09:08:23.162Z,32.95
2023-03-04T09:10:53.726Z,31.92
2023-03-04T09:13:20.900Z,33.72
2023-03-04T09:15:49.271Z,32.65
2023-03-04T09:18:17.880Z,35.92
2023-03-04T09:20:45.777Z,33.10
2023-03-04T09:23:12.975Z,34.55
2023-03-04T09:25:40.045Z,32.90
2023-03-04T09:28:07.350Z,35.47
2023-03-04T09:30:35.417Z,36.10
2023-03-04T09:33:02.397Z,34.70
2023-03-04T09:35:30.082Z,33.05
2023-03-04T09:37:57.878Z,35.42
2023-03-04T09:40:37.818Z,35.78
2023-03-04T09:43:06.608Z,34.97
2023-03-04T09:45:41.427Z,31.15
2023-03-04T09:48:12.954Z,33.83
2023-03-04T09:50:46.487Z,35.75
2023-03-04T09:53:24.899Z,35.40
2023-03-04T09:55:52.879Z,33.50
2023-03-04T09:58:44.774Z,34.00
2023-03-04T10:01:25.498Z,33.85
2023-03-04T10:03:59.501Z,32.97
2023-03-04T10:06:27.287Z,33.83
2023-03-04T10:09:04.477Z,33.50
2023-03-04T10:11:48.197Z,34.45
2023-03-04T10:14:20.979Z,35.15
2023-03-04T10:17:05.707Z,33.33
2023-03-04T10:19:44.670Z,33.88
2023-03-04T10:22:37.574Z,32.78
2023-03-04T10:25:42.622Z,32.92
2023-03-04T10:28:21.676Z,35.42
2023-03-04T10:31:02.698Z,34.45
2023-03-04T10:33:32.659Z,31.25
2023-03-04T10:36:10.540Z,35.72
2023-03-04T10:38:41.203Z,32.90
2023-03-04T10:41:16.126Z,33.40
2023-03-04T10:43:46.725Z,30.55
2023-03-04T10:46:15.371Z,32.72
2023-03-04T10:48:44.787Z,28.75
2023-03-04T10:51:23.321Z,34.90
2023-03-04T10:53:57.044Z,33.78
2023-03-04T10:57:13.025Z,33.42
2023-03-04T10:59:53.662Z,32.25
2023-03-04T11:02:29.847Z,33.28
2023-03-04T11:05:17.520Z,33.72
2023-03-04T11:07:57.059Z,32.90
2023-03-04T11:10:36.494Z,35.00
2023-03-04T11:13:17.758Z,30.77
2023-03-04T11:15:47.450Z,32.28
2023-03-04T11:18:15.010Z,31.92
2023-03-04T11:20:46.678Z,33.30
2023-03-04T11:23:17.873Z,32.05
2023-03-04T11:25:49.849Z,32.38
2023-03-04T11:28:22.991Z,33.10
2023-03-04T11:31:05.247Z,32.95
2023-03-04T11:33:53.660Z,31.98
2023-03-04T11:36:40.575Z,32.85
2023-03-04T11:39:22.246Z,32.28
2023-03-04T11:41:58.503Z,29.98
2023-03-04T11:44:25.415Z,29.00
2023-03-04T11:47:11.361Z,27.80
2023-03-04T11:50:04.098Z,28.75
2023-03-04T11:52:42.213Z,28.25
2023-03-04T11:55:08.853Z,28.42
2023-03-04T11:57:52.884Z,26.50
2023-03-04T12:00:57.780Z,24.67
2023-03-04T12:03:58.236Z,25.40
2023-03-04T12:06:50.427Z,26.55
2023-03-04T12:09:22.950Z,26.70
2023-03-04T12:12:11.477Z,21.38
2023-03-04T12:15:23.204Z,24.40
2023-03-04T12:18:19.386Z,23.38
2023-03-04T12:20:59.829Z,24.48
2023-03-04T12:23:48.419Z,26.00
2023-03-04T12:26:56.539Z,22.90
2023-03-04T12:29:31.308Z,22.60
2023-03-04T12:32:21.128Z,23.02
2023-03-04T12:35:01.807Z,23.33
2023-03-04T12:37:54.627Z,25.60
2023-03-04T12:40:32.639Z,25.58
2023-03-04T12:43:26.539Z,25.42
2023-03-04T12:46:19.827Z,26.20
2023-03-04T12:48:52.425Z,26.67
2023-03-04T12:51:31.149Z,26.00
2023-03-04T12:54:18.915Z,27.50
2023-03-04T12:57:03.013Z,26.65
2023-03-04T12:59:36.764Z,26.35
2023-03-04T13:02:27.312Z,24.25
2023-03-04T13:05:31.409Z,24.13
2023-03-04T13:08:21.104Z,24.60
2023-03-04T13:10:49.790Z,21.67
2023-03-04T13:13:36.895Z,22.55
2023-03-04T13:16:07.040Z,27.00
2023-03-04T13:18:41.343Z,25.05
2023-03-04T13:21:14.155Z,26.00
2023-03-04T13:23:41.062Z,24.05
2023-03-04T13:26:34.607Z,24.52
2023-03-04T13:29:10.432Z,26.27
2023-03-04T13:32:04.096Z,27.48
2023-03-04T13:34:54.463Z,24.50
2023-03-04T13:40:20.652Z,27.02
2023-03-04T13:42:47.516Z,26.83
2023-03-04T13:45:32.236Z,24.98
2023-03-04T13:47:59.901Z,25.42
2023-03-04T13:50:40.601Z,24.85
2023-03-04T13:53:29.977Z,24.40
2023-03-04T13:56:12.008Z,22.57
2023-03-04T13:58:39.640Z,23.77
2023-03-04T14:01:25.309Z,24.45
2023-03-04T14:03:52.070Z,22.95
2023-03-04T14:06:27.710Z,23.30
2023-03-04T14:08:55.387Z,23.92
2023-03-04T14:11:42.576Z,23.65
2023-03-04T14:14:14.211Z,23.55
2023-03-04T14:16:58.928Z,22.70
2023-03-04T14:19:29.040Z,24.67
2023-03-04T14:21:56.364Z,23.45
2023-03-04T14:24:23.816Z,19.15
2023-03-04T14:27:03.355Z,21.27
2023-03-04T14:29:33.231Z,23.85
2023-03-04T14:32:00.432Z,24.23
2023-03-04T14:34:35.687Z,24.15
2023-03-04T14:37:04.995Z,21.83
2023-03-04T14:39:37.888Z,20.90
2023-03-04T14:42:10.934Z,20.55
2023-03-04T14:44:44.163Z,21.85
2023-03-04T14:47:19.252Z,19.88
2023-03-04T14:49:46.698Z,22.83
2023-03-04T14:52:34.158Z,21.25
2023-03-04T14:55:16.322Z,23.52
2023-03-04T14:57:45.482Z,22.30
2023-03-04T15:00:21.574Z,22.65
2023-03-04T15:03:18.149Z,22.00
2023-03-04T15:05:46.205Z,23.25
2023-03-04T15:08:37.166Z,23.50
2023-03-04T15:11:06.234Z,23.25
2023-03-04T15:13:48.572Z,23.02
2023-03-04T15:16:17.256Z,22.38
2023-03-04T15:19:06.581Z,23.33
2023-03-04T15:21:36.748Z,23.63
2023-03-04T15:24:06.065Z,25.40
2023-03-04T15:26:34.640Z,25.10
2023-03-04T15:29:03.444Z,23.52
2023-03-04T15:31:30.138Z,23.77
2023-03-04T15:33:56.821Z,22.70
2023-03-04T15:36:24.167Z,26.17
2023-03-04T15:38:53.469Z,25.40
2023-03-04T15:41:25.536Z,25.13
2023-03-04T15:43:54.068Z,24.70
2023-03-04T15:46:21.574Z,26.25
2023-03-04T15:48:48.857Z,26.35
2023-03-04T15:51:20.849Z,26.55
2023-03-04T15:53:50.265Z,22.70
2023-03-04T15:56:20.103Z,23.63
2023-03-04T15:58:59.427Z,23.70
2023-03-04T16:01:26.129Z,25.43
2023-03-04T16:03:53.879Z,26.20
2023-03-04T16:06:23.374Z,25.02
2023-03-04T16:08:51.374Z,26.38
2023-03-04T16:11:22.011Z,22.15
2023-03-04T16:13:49.068Z,25.27
2023-03-04T16:16:16.378Z,26.63
2023-03-04T16:18:43.539Z,26.80
2023-03-04T16:21:18.556Z,25.80
2023-03-04T16:23:48.403Z,25.05
2023-03-04T16:26:18.366Z,25.77
2023-03-04T16:28:45.028Z,25.27
2023-03-04T16:31:14.131Z,24.30
2023-03-04T16:33:41.262Z,26.10
2023-03-04T16:36:22.342Z,27.75
2023-03-04T16:38:49.461Z,24.13
2023-03-04T16:41:20.287Z,27.48
2023-03-04T16:43:46.917Z,25.00
2023-03-04T16:46:14.190Z,26.98
2023-03-04T16:48:41.142Z,29.40
2023-03-04T16:51:19.512Z,27.13
2023-03-04T16:53:54.713Z,28.10
2023-03-04T16:56:21.796Z,29.50
2023-03-04T16:58:49.226Z,28.48
2023-03-04T17:01:20.428Z,26.40
2023-03-04T17:03:47.491Z,26.67
2023-03-04T17:06:15.025Z,26.02
2023-03-04T17:08:41.901Z,29.17
2023-03-04T17:11:12.114Z,29.00
2023-03-04T17:16:05.961Z,26.05
2023-03-04T17:18:33.069Z,29.67
2023-03-04T17:21:07.749Z,27.05
2023-03-04T17:23:35.099Z,28.67
2023-03-04T17:26:01.771Z,29.05
2023-03-04T17:28:28.441Z,29.35
2023-03-04T17:30:55.375Z,28.88
2023-03-04T17:33:22.409Z,27.60
2023-03-04T17:35:49.481Z,30.90
2023-03-04T17:38:17.016Z,32.30
2023-03-04T17:40:44.684Z,32.25
2023-03-04T17:43:11.591Z,46.25
2023-03-04T17:45:39.410Z,47.75
2023-03-04T17:48:06.448Z,41.35
2023-03-04T17:50:33.688Z,35.63
2023-03-04T17:53:00.354Z,30.73
2023-03-04T17:55:26.972Z,29.88
2023-03-04T17:57:55.577Z,32.35
2023-03-04T18:00:22.525Z,30.85
2023-03-04T18:02:49.281Z,29.00
2023-03-04T18:05:16.199Z,30.95
2023-03-04T18:07:42.938Z,31.58
2023-03-04T18:10:10.106Z,30.13
2023-03-04T18:12:36.804Z,29.35
2023-03-04T18:15:03.890Z,30.67
2023-03-04T18:17:30.534Z,31.05
2023-03-04T18:19:57.164Z,30.45
2023-03-04T18:22:23.866Z,30.10
2023-03-04T18:24:50.472Z,29.17
2023-03-04T18:27:17.081Z,30.55
2023-03-04T18:29:43.710Z,31.63
2023-03-04T18:32:10.480Z,36.88
2023-03-04T18:34:37.164Z,30.40
2023-03-04T18:37:03.839Z,30.13
2023-03-04T18:39:30.464Z,29.40
2023-03-04T18:41:57.089Z,29.98
2023-03-04T18:44:23.689Z,31.40
2023-03-04T18:46:52.927Z,32.22
2023-03-04T18:49:20.586Z,34.97
2023-03-04T18:51:47.336Z,32.90
2023-03-04T18:54:14.194Z,32.03
2023-03-04T18:56:47.963Z,34.15
2023-03-04T18:59:21.627Z,31.48
2023-03-04T19:01:49.882Z,30.08
2023-03-04T19:04:19.175Z,32.75
2023-03-04T19:06:45.839Z,34.67
2023-03-04T19:09:12.652Z,33.85
2023-03-04T19:11:39.316Z,32.70
2023-03-04T19:14:06.326Z,35.30
2023-03-04T19:16:32.998Z,32.78
2023-03-04T19:18:59.642Z,36.20
2023-03-04T19:21:26.261Z,34.50
2023-03-04T19:23:52.886Z,32.83
2023-03-04T19:26:19.547Z,34.47
2023-03-04T19:28:46.221Z,31.77
2023-03-04T19:31:13.167Z,29.55
2023-03-04T19:33:41.321Z,31.88
2023-03-04T19:36:09.133Z,29.85
2023-03-04T19:38:36.126Z,29.27
2023-03-04T19:41:14.225Z,28.50
2023-03-04T19:43:40.969Z,27.23
2023-03-04T19:46:09.406Z,25.27
2023-03-04T19:48:37.727Z,26.48
2023-03-04T19:51:12.611Z,27.65
2023-03-04T19:53:39.230Z,25.15
2023-03-04T19:56:06.221Z,25.10
2023-03-04T19:58:32.880Z,26.88
2023-03-04T20:01:00.419Z,25.80
2023-03-04T20:03:27.044Z,23.92
2023-03-04T20:06:08.137Z,24.42
2023-03-04T20:08:37.927Z,25.33
2023-03-04T20:11:12.626Z,22.98
2023-03-04T20:13:39.296Z,20.65
2023-03-04T20:16:12.724Z,24.73
2023-03-04T20:18:40.249Z,23.75
2023-03-04T20:21:07.217Z,25.38
2023-03-04T20:23:34.311Z,24.23
2023-03-04T20:26:01.321Z,24.40
2023-03-04T20:28:28.267Z,25.00
2023-03-04T20:31:20.277Z,20.10
2023-03-04T20:33:48.814Z,23.42
2023-03-04T20:36:20.547Z,23.42
2023-03-04T20:38:48.396Z,23.35
2023-03-04T20:41:15.249Z,22.52
2023-03-04T20:43:41.975Z,23.02
2023-03-04T20:46:47.929Z,22.98
2023-03-04T20:49:24.045Z,22.85
2023-03-04T20:51:51.914Z,23.42
2023-03-04T20:54:19.050Z,22.60
2023-03-04T20:56:46.091Z,21.67
2023-03-04T20:59:13.195Z,24.75
2023-03-04T21:01:42.176Z,23.13
2023-03-04T21:04:09.456Z,23.63
2023-03-04T21:06:38.537Z,24.05
2023-03-04T21:09:12.755Z,23.98
2023-03-04T21:11:42.204Z,22.90
2023-03-04T21:14:16.592Z,26.40
2023-03-04T21:16:43.471Z,22.80
2023-03-04T21:19:22.565Z,23.45
2023-03-04T21:21:50.774Z,25.73
2023-03-04T21:24:20.365Z,21.75
2023-03-04T21:26:47.936Z,24.10
2023-03-04T21:29:19.745Z,22.25
2023-03-04T21:31:55.203Z,21.92
2023-03-04T21:34:26.284Z,20.77
2023-03-04T21:36:52.905Z,22.88
2023-03-04T21:39:22.224Z,21.73
2023-03-04T21:41:49.122Z,21.13
2023-03-04T21:44:27.701Z,22.65
2023-03-04T21:46:57.216Z,23.75
2023-03-04T21:49:24.278Z,21.92
2023-03-04T21:51:50.927Z,23.08
2023-03-04T21:54:17.944Z,21.85
2023-03-04T21:56:44.620Z,22.25
2023-03-04T21:59:13.807Z,24.25
2023-03-04T22:01:41.725Z,21.30
2023-03-04T22:04:08.935Z,21.63
2023-03-04T22:06:35.865Z,22.45
2023-03-04T22:09:04.347Z,22.75
2023-03-04T22:11:31.859Z,22.45
2023-03-04T22:14:00.960Z,24.33
2023-03-04T22:16:28.588Z,23.10
2023-03-04T22:18:55.514Z,22.00
2023-03-04T22:21:22.291Z,23.30
2023-03-04T22:23:49.253Z,24.13
2023-03-04T22:26:21.723Z,21.10
2023-03-04T22:28:48.361Z,22.38
2023-03-04T22:31:17.818Z,22.95
2023-03-04T22:33:44.820Z,22.10
2023-03-04T22:36:12.675Z,22.98
2023-03-04T22:38:40.076Z,20.10
2023-03-04T22:41:15.615Z,21.77
2023-03-04T22:43:43.155Z,21.85
2023-03-04T22:46:20.057Z,21.50
2023-03-04T22:48:47.408Z,20.60
2023-03-04T22:51:14.464Z,20.42
2023-03-04T22:53:42.146Z,21.33
2023-03-04T22:56:09.661Z,19.88
2023-03-04T22:58:36.591Z,21.15
2023-03-04T23:01:04.516Z,23.60
2023-03-04T23:03:31.318Z,21.02
2023-03-04T23:06:12.684Z,21.45
2023-03-04T23:08:40.832Z,20.63
2023-03-04T23:11:10.119Z,22.15
2023-03-04T23:13:37.984Z,20.17
2023-03-04T23:16:07.912Z,22.13
2023-03-04T23:18:35.506Z,21.73
2023-03-04T23:21:25.627Z,20.73
2023-03-04T23:26:25.283Z,20.00
2023-03-04T23:28:53.199Z,21.92
2023-03-04T23:31:19.953Z,21.73
2023-03-04T23:33:48.427Z,22.15
2023-03-04T23:36:17.599Z,21.45
2023-03-04T23:38:46.072Z,21.83
2023-03-04T23:41:14.588Z,22.08
2023-03-04T23:43:41.340Z,21.67
2023-03-04T23:46:14.314Z,22.20
2023-03-04T23:48:43.657Z,22.90
2023-03-04T23:51:10.487Z,21.52
2023-03-04T23:53:39.025Z,21.75
2023-03-04T23:56:09.867Z,22.00
2023-03-04T23:58:36.768Z,21.20
